Time;durP1;ratioP1;P1;durP2;ratioP2;P2;SDS_P1;SDS_P2;PMS_P1;PMS_P2;Temp;Humidity;BMP_temperature;BMP_pressure;BME280_temperature;BME280_humidity;BME280_pressure;Samples;Min_cycle;Max_cycle;Signal;HPM_P1;HPM_P2
2021/12/13 00:02:34;;;;;;;38.45;10.20;;;11.20;99.90;;;;;;5075209;28;20109;-40
2021/12/13 00:05:34;;;;;;;31.33;10.93;;;11.20;99.90;;;;;;5076000;28;20028;-42
2021/12/13 00:08:08;;;;;;;29.80;9.43;;;11.20;99.90;;;;;;5066227;28;20094;-40
2021/12/13 00:10:41;;;;;;;33.88;10.73;;;11.20;99.90;;;;;;5075945;28;20418;-41
2021/12/13 00:13:18;;;;;;;32.25;10.38;;;11.30;99.90;;;;;;5076064;28;20040;-41
2021/12/13 00:15:51;;;;;;;28.65;10.27;;;11.30;99.90;;;;;;5075607;28;20468;-41
2021/12/13 00:18:24;;;;;;;26.13;9.85;;;11.30;99.90;;;;;;5075906;28;20059;-41
2021/12/13 00:20:54;;;;;;;25.75;8.85;;;11.20;99.90;;;;;;5071780;28;20411;-43
2021/12/13 00:23:31;;;;;;;30.25;10.65;;;11.30;99.90;;;;;;5095461;28;20024;-41
2021/12/13 00:25:59;;;;;;;29.88;9.60;;;11.30;99.90;;;;;;5096076;28;20020;-43
2021/12/13 00:28:30;;;;;;;29.92;10.80;;;11.30;99.90;;;;;;5095394;28;20146;-40
2021/12/13 00:31:20;;;;;;;32.67;10.55;;;11.30;99.90;;;;;;5095914;28;20039;-40
2021/12/13 00:34:42;;;;;;;24.20;9.05;;;11.30;99.90;;;;;;5095854;28;20028;-41
2021/12/13 00:37:10;;;;;;;32.13;9.57;;;11.30;99.90;;;;;;4993276;28;20078;-41
2021/12/13 00:39:51;;;;;;;35.83;10.52;;;11.30;99.90;;;;;;4993839;28;20023;-42
2021/12/13 00:42:19;;;;;;;33.25;9.25;;;11.30;99.90;;;;;;5040517;28;20511;-39
2021/12/13 00:44:50;;;;;;;22.13;8.32;;;11.30;99.90;;;;;;5075004;28;20016;-41
2021/12/13 00:47:37;;;;;;;21.92;8.68;;;11.30;99.90;;;;;;5075362;28;20025;-40
2021/12/13 00:50:07;;;;;;;21.80;8.70;;;11.30;99.90;;;;;;5074768;28;20040;-40
2021/12/13 00:52:37;;;;;;;19.05;7.70;;;11.30;99.90;;;;;;5074408;28;20032;-41
2021/12/13 00:55:12;;;;;;;22.30;8.65;;;11.30;99.90;;;;;;5075168;28;20029;-40
2021/12/13 00:57:50;;;;;;;18.40;8.18;;;11.30;99.90;;;;;;5074402;28;20041;-39
2021/12/13 01:00:26;;;;;;;28.48;9.23;;;11.30;99.90;;;;;;5075140;28;20055;-40
2021/12/13 01:02:56;;;;;;;38.33;8.55;;;11.30;99.90;;;;;;5074927;28;20604;-40
2021/12/13 01:05:31;;;;;;;30.60;8.77;;;11.30;99.90;;;;;;5077107;28;20032;-39
2021/12/13 01:08:12;;;;;;;25.90;9.90;;;11.30;99.90;;;;;;5075112;28;20031;-40
2021/12/13 01:10:50;;;;;;;32.00;9.50;;;11.30;99.90;;;;;;5074288;28;20078;-39
2021/12/13 01:13:15;;;;;;;30.77;8.50;;;11.30;99.90;;;;;;5074692;28;20390;-40
2021/12/13 01:15:59;;;;;;;23.88;8.20;;;11.30;99.90;;;;;;5074866;28;20519;-39
2021/12/13 01:18:45;;;;;;;26.33;8.40;;;11.30;99.90;;;;;;5074317;28;20095;-40
2021/12/13 01:21:32;;;;;;;34.88;10.77;;;11.30;99.90;;;;;;5074688;28;20024;-40
2021/12/13 01:24:07;;;;;;;20.13;9.18;;;11.30;99.90;;;;;;5074772;28;20031;-39
2021/12/13 01:26:45;;;;;;;25.33;9.35;;;11.30;99.90;;;;;;5074108;28;20028;-39
2021/12/13 01:29:18;;;;;;;22.23;9.40;;;11.30;99.90;;;;;;5086642;28;20040;-39
2021/12/13 01:31:48;;;;;;;24.30;8.63;;;11.30;99.90;;;;;;5094250;28;20348;-39
2021/12/13 01:34:16;;;;;;;16.17;7.88;;;11.30;99.90;;;;;;5094672;28;20054;-40
2021/12/13 01:36:52;;;;;;;18.02;7.05;;;11.30;99.90;;;;;;5092878;28;20024;-39
2021/12/13 01:39:22;;;;;;;18.23;6.95;;;11.30;99.90;;;;;;5094110;28;20395;-41
2021/12/13 01:41:51;;;;;;;17.88;6.65;;;11.30;99.90;;;;;;5094602;28;20444;-40
2021/12/13 01:44:26;;;;;;;16.58;7.40;;;11.30;99.90;;;;;;5094520;28;20021;-39
2021/12/13 01:46:59;;;;;;;17.23;6.90;;;11.30;99.90;;;;;;5093948;28;20431;-40
2021/12/13 01:49:29;;;;;;;14.85;6.10;;;11.30;99.90;;;;;;5094214;28;20115;-39
2021/12/13 01:51:58;;;;;;;18.13;6.10;;;11.30;99.90;;;;;;5094508;28;20078;-39
2021/12/13 01:54:25;;;;;;;15.88;6.47;;;11.30;99.90;;;;;;5093771;28;20119;-39
2021/12/13 01:59:48;;;;;;;17.95;6.53;;;11.30;99.90;;;;;;5074049;28;20036;-41
2021/12/13 02:02:40;;;;;;;11.52;5.32;;;11.30;99.90;;;;;;5073969;28;20033;-39
2021/12/13 02:05:10;;;;;;;10.15;5.53;;;11.20;99.90;;;;;;5073835;28;20107;-41
2021/12/13 02:07:45;;;;;;;14.40;5.75;;;11.20;99.90;;;;;;5073375;28;20025;-41
2021/12/13 02:10:26;;;;;;;12.82;5.65;;;11.20;99.90;;;;;;5073701;28;20035;-40
2021/12/13 02:12:57;;;;;;;17.90;6.28;;;11.20;99.90;;;;;;5073901;28;20028;-39
2021/12/13 02:18:12;;;;;;;16.75;5.97;;;11.20;99.90;;;;;;5073976;28;20132;-39
2021/12/13 02:20:41;;;;;;;10.02;4.68;;;11.20;99.90;;;;;;5073465;28;20050;-39
2021/12/13 02:23:07;;;;;;;11.15;5.60;;;11.20;99.90;;;;;;5073040;28;20021;-40
2021/12/13 02:25:55;;;;;;;14.70;5.70;;;11.20;99.90;;;;;;5090336;28;20035;-39
2021/12/13 02:28:28;;;;;;;13.95;6.70;;;11.20;99.90;;;;;;5093135;28;20519;-41
2021/12/13 02:31:11;;;;;;;14.90;7.13;;;11.30;99.90;;;;;;5093682;28;20064;-39
2021/12/13 02:33:48;;;;;;;15.68;7.07;;;11.20;99.90;;;;;;5084619;28;20024;-39
2021/12/13 02:36:23;;;;;;;16.42;6.53;;;11.20;99.90;;;;;;5072807;28;20093;-40
2021/12/13 02:38:52;;;;;;;17.08;6.22;;;11.20;99.90;;;;;;5073283;28;20467;-40
2021/12/13 02:41:21;;;;;;;16.45;6.35;;;11.20;99.90;;;;;;5073168;28;20024;-40
2021/12/13 02:43:48;;;;;;;;;;;11.30;99.90;;;;;;5073181;28;20028;-40
2021/12/13 02:46:14;;;;;;;19.20;5.75;;;11.20;99.90;;;;;;5073192;28;19910;-40
2021/12/13 02:48:45;;;;;;;14.90;6.65;;;11.20;99.90;;;;;;5073143;28;20415;-39
2021/12/13 02:51:24;;;;;;;14.77;7.35;;;11.20;99.90;;;;;;5072334;28;20044;-39
2021/12/13 02:53:58;;;;;;;19.50;7.18;;;11.20;99.90;;;;;;5085246;28;20437;-39
2021/12/13 02:56:32;;;;;;;16.70;6.93;;;11.20;99.90;;;;;;5092608;28;20032;-39
2021/12/13 02:58:59;;;;;;;17.25;7.00;;;11.20;99.90;;;;;;5093110;28;20047;-40
2021/12/13 03:01:45;;;;;;;17.15;7.00;;;11.20;99.90;;;;;;5093162;28;20081;-39
2021/12/13 03:04:18;;;;;;;16.02;6.57;;;11.20;99.90;;;;;;5092654;28;20028;-39
2021/12/13 03:07:12;;;;;;;17.20;7.43;;;11.20;99.90;;;;;;5093264;28;20024;-40
2021/12/13 03:09:40;;;;;;;18.85;8.27;;;11.20;99.90;;;;;;5093007;28;20040;-40
2021/12/13 03:12:11;;;;;;;17.25;7.15;;;11.20;99.90;;;;;;5091968;28;20047;-39
2021/12/13 03:14:41;;;;;;;20.65;8.43;;;11.20;99.90;;;;;;5072854;28;20020;-40
2021/12/13 03:17:20;;;;;;;18.48;8.10;;;11.20;99.90;;;;;;5078725;28;20028;-40
2021/12/13 03:20:19;;;;;;;17.92;7.90;;;11.20;99.90;;;;;;5080452;28;20089;-39
2021/12/13 03:23:03;;;;;;;17.77;7.15;;;11.20;99.90;;;;;;5061497;28;20434;-39
2021/12/13 03:25:40;;;;;;;13.52;5.68;;;11.10;99.90;;;;;;5078902;28;20044;-39
2021/12/13 03:28:34;;;;;;;13.85;6.47;;;11.20;99.90;;;;;;5079471;28;20028;-39
2021/12/13 03:31:05;;;;;;;17.00;5.65;;;11.10;99.90;;;;;;5079366;28;20474;-41
2021/12/13 03:33:40;;;;;;;11.07;5.20;;;11.10;99.90;;;;;;5078899;28;20032;-39
2021/12/13 03:36:09;;;;;;;15.75;6.07;;;11.10;99.90;;;;;;5079452;28;20063;-41
2021/12/13 03:38:42;;;;;;;16.33;6.78;;;11.10;99.90;;;;;;5078882;28;20024;-40
2021/12/13 03:41:13;;;;;;;12.07;6.10;;;11.10;99.90;;;;;;5080369;28;20032;-39
2021/12/13 03:43:47;;;;;;;13.50;5.93;;;11.10;99.90;;;;;;5079199;28;20406;-39
2021/12/13 03:46:17;;;;;;;17.95;6.93;;;11.00;99.90;;;;;;5078765;28;20031;-39
2021/12/13 03:48:45;;;;;;;15.25;6.43;;;11.10;99.90;;;;;;5079245;28;20028;-40
2021/12/13 03:51:15;;;;;;;19.45;6.63;;;11.00;99.90;;;;;;5079048;28;20032;-39
2021/12/13 03:53:45;;;;;;;14.98;6.05;;;11.00;99.90;;;;;;5078563;28;20051;-39
2021/12/13 03:56:17;;;;;;;14.88;5.68;;;11.00;99.90;;;;;;5079132;28;20028;-39
2021/12/13 03:58:47;;;;;;;14.80;5.68;;;11.00;99.90;;;;;;5078869;28;20040;-39
2021/12/13 04:01:17;;;;;;;15.45;5.68;;;11.00;99.90;;;;;;5078669;28;20392;-39
2021/12/13 04:03:44;;;;;;;19.30;6.15;;;10.90;99.90;;;;;;5079181;28;20039;-40
2021/12/13 04:06:14;;;;;;;11.68;6.38;;;10.90;99.90;;;;;;5078888;28;20012;-40
2021/12/13 04:08:40;;;;;;;11.68;5.70;;;10.90;99.90;;;;;;5078662;28;20020;-40
2021/12/13 04:11:09;;;;;;;15.07;6.18;;;10.90;99.90;;;;;;5080113;28;20055;-40
2021/12/13 04:13:40;;;;;;;13.63;5.25;;;10.90;99.90;;;;;;5098898;28;20028;-39
2021/12/13 04:17:02;;;;;;;11.52;4.97;;;10.80;99.90;;;;;;5099265;28;20036;-39
2021/12/13 04:19:52;;;;;;;13.55;5.22;;;10.80;99.90;;;;;;5099194;28;20502;-40
2021/12/13 04:22:20;;;;;;;14.50;5.40;;;10.80;99.90;;;;;;5097827;28;20113;-39
2021/12/13 04:25:12;;;;;;;12.95;5.82;;;10.70;99.90;;;;;;5099074;28;20020;-40
2021/12/13 04:27:59;;;;;;;14.23;5.07;;;10.70;99.90;;;;;;5094622;28;20059;-42
2021/12/13 04:30:30;;;;;;;15.52;6.47;;;10.70;99.90;;;;;;5095768;28;20399;-40
2021/12/13 04:33:03;;;;;;;16.15;5.97;;;10.70;99.90;;;;;;5095663;28;20124;-39
2021/12/13 04:35:29;;;;;;;11.73;6.13;;;10.70;99.90;;;;;;5095311;28;20028;-40
2021/12/13 04:37:59;;;;;;;12.40;5.88;;;10.60;99.90;;;;;;5095910;28;20027;-39
2021/12/13 04:40:32;;;;;;;10.82;5.28;;;10.60;99.90;;;;;;5086091;28;20012;-39
2021/12/13 04:43:08;;;;;;;14.35;6.18;;;10.60;99.90;;;;;;5075046;28;20025;-40
2021/12/13 04:45:35;;;;;;;11.57;5.20;;;10.60;99.90;;;;;;5075320;28;20497;-40
2021/12/13 04:48:14;;;;;;;12.80;5.68;;;10.60;99.90;;;;;;5075324;28;20460;-39
2021/12/13 04:50:49;;;;;;;17.98;5.30;;;10.50;99.90;;;;;;5074724;28;20035;-40
2021/12/13 04:53:31;;;;;;;11.30;5.45;;;10.50;99.90;;;;;;5075285;28;20040;-40
2021/12/13 04:56:00;;;;;;;7.82;4.75;;;10.50;99.90;;;;;;5085534;28;20020;-40
2021/12/13 04:58:27;;;;;;;14.85;5.25;;;10.50;99.90;;;;;;5094872;28;20062;-40
2021/12/13 05:00:58;;;;;;;12.88;5.18;;;10.40;99.90;;;;;;5095478;28;20157;-40
2021/12/13 05:03:33;;;;;;;10.23;5.30;;;10.30;99.90;;;;;;5094832;28;20020;-40
2021/12/13 05:06:04;;;;;;;13.32;5.22;;;10.30;99.90;;;;;;5095313;28;20028;-40
2021/12/13 05:08:30;;;;;;;11.25;5.55;;;10.20;99.90;;;;;;5095237;28;20028;-42
2021/12/13 05:11:03;;;;;;;11.13;5.43;;;10.30;99.90;;;;;;5080820;28;20043;-40
2021/12/13 05:13:29;;;;;;;13.65;5.55;;;10.30;99.90;;;;;;5075027;28;20032;-41
2021/12/13 05:16:08;;;;;;;13.05;5.47;;;10.30;99.90;;;;;;5074821;28;20031;-39
2021/12/13 05:18:50;;;;;;;11.93;4.78;;;10.30;99.90;;;;;;5074337;28;20471;-39
2021/12/13 05:21:26;;;;;;;11.95;4.70;;;10.30;99.90;;;;;;5074709;28;20024;-39
2021/12/13 05:23:56;;;;;;;14.43;6.10;;;10.30;99.90;;;;;;5074320;28;20027;-39
2021/12/13 05:26:51;;;;;;;11.98;5.40;;;10.30;99.90;;;;;;5074636;28;20028;-39
2021/12/13 05:29:37;;;;;;;10.40;4.80;;;10.30;99.90;;;;;;5074569;28;20067;-40
2021/12/13 05:32:26;;;;;;;12.27;5.07;;;10.40;99.90;;;;;;5074923;28;20067;-40
2021/12/13 05:34:58;;;;;;;14.68;5.03;;;10.30;99.90;;;;;;5074587;28;20064;-39
2021/12/13 05:37:25;;;;;;;11.00;4.20;;;10.30;99.90;;;;;;5074450;28;20025;-40
2021/12/13 05:40:01;;;;;;;10.57;4.80;;;10.40;99.90;;;;;;5073425;28;20012;-40
2021/12/13 05:42:43;;;;;;;10.15;4.88;;;10.30;99.90;;;;;;5074240;28;20032;-41
2021/12/13 05:45:18;;;;;;;7.63;3.60;;;10.30;99.90;;;;;;5073753;28;20028;-39
2021/12/13 05:48:02;;;;;;;9.00;3.70;;;10.30;99.90;;;;;;5074303;28;20025;-40
2021/12/13 05:50:35;;;;;;;8.98;4.43;;;10.40;99.90;;;;;;5074004;28;20071;-39
2021/12/13 05:53:12;;;;;;;9.13;3.25;;;10.30;99.90;;;;;;5073673;28;20024;-40
2021/12/13 05:55:52;;;;;;;10.75;3.88;;;10.30;99.90;;;;;;5074059;28;20033;-39
2021/12/13 05:58:48;;;;;;;13.52;3.88;;;10.30;99.90;;;;;;5073721;28;20097;-39
2021/12/13 06:01:18;;;;;;;7.80;4.10;;;10.30;99.90;;;;;;5080221;28;20048;-39
2021/12/13 06:04:05;;;;;;;8.55;4.22;;;10.30;99.90;;;;;;5075684;28;20453;-39
2021/12/13 06:06:39;;;;;;;13.15;4.28;;;10.40;99.90;;;;;;5093690;28;20024;-39
2021/12/13 06:09:05;;;;;;;10.18;4.88;;;10.40;99.90;;;;;;5093982;28;20366;-39
2021/12/13 06:11:33;;;;;;;10.55;4.93;;;10.30;99.90;;;;;;5094042;28;20028;-40
2021/12/13 06:14:14;;;;;;;15.07;4.37;;;10.40;99.90;;;;;;5093365;28;20459;-39
2021/12/13 06:17:00;;;;;;;10.82;5.15;;;10.40;99.90;;;;;;5093921;28;20559;-39
2021/12/13 06:19:32;;;;;;;11.40;5.63;;;10.40;99.90;;;;;;5093799;28;20575;-39
2021/12/13 06:22:09;;;;;;;9.65;4.35;;;10.40;99.90;;;;;;5093419;28;20028;-40
2021/12/13 06:24:40;;;;;;;10.52;5.18;;;10.30;99.90;;;;;;5093785;28;20119;-39
2021/12/13 06:27:16;;;;;;;16.48;5.97;;;10.40;99.90;;;;;;5093339;28;20024;-39
2021/12/13 06:29:50;;;;;;;15.48;6.32;;;10.30;99.90;;;;;;5093598;28;20034;-40
2021/12/13 06:32:37;;;;;;;10.73;5.63;;;10.40;99.90;;;;;;5077609;28;20020;-39
2021/12/13 06:35:30;;;;;;;13.77;5.88;;;10.30;99.90;;;;;;5072955;28;20060;-39
2021/12/13 06:37:58;;;;;;;12.40;5.75;;;10.40;99.90;;;;;;5073391;28;20089;-39
2021/12/13 06:40:27;;;;;;;14.60;6.55;;;10.30;99.90;;;;;;5073251;28;20024;-39
2021/12/13 06:43:22;;;;;;;19.00;7.78;;;10.30;99.90;;;;;;5072773;28;20021;-39
2021/12/13 06:45:48;;;;;;;15.05;6.65;;;10.30;99.90;;;;;;5073015;28;20035;-40
2021/12/13 06:48:13;;;;;;;13.90;6.22;;;10.30;99.90;;;;;;5072673;28;20348;-39
2021/12/13 06:50:39;;;;;;;15.23;7.40;;;10.30;99.90;;;;;;5072382;28;20032;-40
2021/12/13 06:53:17;;;;;;;15.63;6.78;;;10.30;99.90;;;;;;5073163;28;20125;-39
2021/12/13 06:55:44;;;;;;;15.90;7.93;;;10.30;99.90;;;;;;5072717;28;20632;-39
2021/12/13 06:58:29;;;;;;;15.13;7.05;;;10.20;99.90;;;;;;5072577;28;20044;-40
2021/12/13 07:01:03;;;;;;;19.48;8.52;;;10.20;99.90;;;;;;5079600;28;20070;-40
2021/12/13 07:03:34;;;;;;;19.27;8.20;;;10.20;99.90;;;;;;5092683;28;20076;-39
2021/12/13 07:06:03;;;;;;;17.08;8.32;;;10.20;99.90;;;;;;5093139;28;20433;-40
2021/12/13 07:08:34;;;;;;;17.08;8.35;;;10.20;99.90;;;;;;5093041;28;20032;-40
2021/12/13 07:11:05;;;;;;;18.73;8.45;;;10.20;99.90;;;;;;5092604;28;20036;-40
2021/12/13 07:13:35;;;;;;;21.05;9.32;;;10.20;99.90;;;;;;5093109;28;20032;-39
2021/12/13 07:16:06;;;;;;;19.48;8.68;;;10.20;99.90;;;;;;5093231;28;20032;-39
2021/12/13 07:18:47;;;;;;;22.98;8.55;;;10.20;99.90;;;;;;5092626;28;20051;-40
2021/12/13 07:21:39;;;;;;;22.85;9.75;;;10.20;99.90;;;;;;5093045;28;20509;-40
2021/12/13 07:24:09;;;;;;;22.83;10.15;;;10.20;99.90;;;;;;5092445;28;20024;-41
2021/12/13 07:27:04;;;;;;;18.17;8.77;;;10.20;99.90;;;;;;5093015;28;20103;-40
2021/12/13 07:29:51;;;;;;;21.88;9.07;;;10.20;99.90;;;;;;5092937;28;20038;-39
2021/12/13 07:32:33;;;;;;;18.77;8.48;;;10.20;99.90;;;;;;5078919;28;20025;-40
2021/12/13 07:35:12;;;;;;;20.73;9.52;;;10.20;99.90;;;;;;5092965;28;20012;-39
2021/12/13 07:37:58;;;;;;;24.05;9.75;;;10.20;99.90;;;;;;5079589;28;20090;-40
2021/12/13 07:40:44;;;;;;;27.77;10.32;;;10.20;99.90;;;;;;5071766;28;20059;-40
2021/12/13 07:43:26;;;;;;;29.83;11.30;;;10.20;99.90;;;;;;5071953;28;20127;-39
2021/12/13 07:46:10;;;;;;;27.45;11.13;;;10.20;99.90;;;;;;5071176;28;20021;-40
2021/12/13 07:48:41;;;;;;;27.88;10.18;;;10.20;99.90;;;;;;5072956;28;20032;-40
2021/12/13 07:51:15;;;;;;;28.27;12.70;;;10.20;99.90;;;;;;5080479;28;20050;-40
2021/12/13 07:53:58;;;;;;;24.60;10.88;;;10.20;99.90;;;;;;5091543;28;20066;-39
2021/12/13 07:56:33;;;;;;;22.10;10.25;;;10.20;99.90;;;;;;5074640;28;20029;-40
2021/12/13 07:59:07;;;;;;;27.25;11.00;;;10.20;99.90;;;;;;5070807;28;20074;-39
2021/12/13 08:01:56;;;;;;;21.08;10.65;;;10.20;99.90;;;;;;5083367;28;20029;-40
2021/12/13 08:04:27;;;;;;;30.52;12.05;;;10.20;99.90;;;;;;5087031;28;20059;-40
2021/12/13 08:06:57;;;;;;;22.38;10.00;;;10.20;99.90;;;;;;5089241;28;20027;-41
2021/12/13 08:09:27;;;;;;;30.05;12.30;;;10.20;99.90;;;;;;5079174;28;20575;-41
2021/12/13 08:12:04;;;;;;;32.17;12.85;;;10.20;99.90;;;;;;5094044;28;20046;-40
2021/12/13 08:14:36;;;;;;;28.23;12.73;;;10.20;99.90;;;;;;5091987;28;20028;-39
2021/12/13 08:17:44;;;;;;;26.80;11.52;;;10.20;99.90;;;;;;5094094;28;20073;-40
2021/12/13 08:20:17;;;;;;;27.73;12.02;;;10.20;99.90;;;;;;5030910;28;20025;-39
2021/12/13 08:22:46;;;;;;;24.33;11.70;;;10.20;99.90;;;;;;5031484;28;20129;-40
2021/12/13 08:25:23;;;;;;;27.75;12.88;;;10.20;99.90;;;;;;5066685;28;20043;-39
2021/12/13 08:27:59;;;;;;;25.20;10.52;;;10.20;99.90;;;;;;5091173;28;20044;-42
2021/12/13 08:30:32;;;;;;;22.15;11.93;;;10.20;99.90;;;;;;5094192;28;20042;-39
2021/12/13 08:33:00;;;;;;;25.13;11.23;;;10.20;99.90;;;;;;5095038;28;20074;-41
2021/12/13 08:35:27;;;;;;;24.63;10.93;;;10.20;99.90;;;;;;5094733;28;20081;-40
2021/12/13 08:37:57;;;;;;;25.92;11.13;;;10.20;99.90;;;;;;5094059;28;20024;-39
2021/12/13 08:40:27;;;;;;;25.98;10.82;;;10.20;99.90;;;;;;5093863;28;20031;-39
2021/12/13 08:42:55;;;;;;;29.60;13.35;;;10.20;99.90;;;;;;5089556;28;20027;-39
2021/12/13 08:45:28;;;;;;;22.45;11.20;;;10.30;99.90;;;;;;5092663;28;20079;-39
2021/12/13 08:47:57;;;;;;;28.98;12.10;;;10.30;99.90;;;;;;5091233;28;20081;-39
2021/12/13 08:50:33;;;;;;;23.27;11.05;;;10.20;99.90;;;;;;5093450;28;20032;-39
2021/12/13 08:53:09;;;;;;;25.30;10.98;;;10.30;99.90;;;;;;5091786;28;20093;-40
2021/12/13 08:55:39;;;;;;;24.98;10.98;;;10.30;99.90;;;;;;5090800;28;20074;-40
2021/12/13 08:58:07;;;;;;;24.77;11.73;;;10.30;99.90;;;;;;5093319;28;20085;-39
2021/12/13 09:00:53;;;;;;;24.48;11.55;;;10.30;99.90;;;;;;5090842;28;20031;-41
2021/12/13 09:03:34;;;;;;;21.38;10.63;;;10.30;99.90;;;;;;5091200;28;20028;-39
2021/12/13 09:06:11;;;;;;;26.63;11.48;;;10.30;99.90;;;;;;5091682;28;20117;-40
2021/12/13 09:08:43;;;;;;;22.38;10.75;;;10.30;99.90;;;;;;5091339;28;20484;-40
2021/12/13 09:11:27;;;;;;;22.17;10.30;;;10.30;99.90;;;;;;5092692;28;20032;-41
2021/12/13 09:14:08;;;;;;;26.70;10.60;;;10.30;99.90;;;;;;5089581;28;20051;-41
2021/12/13 09:17:09;;;;;;;25.55;10.10;;;10.30;99.90;;;;;;5088790;28;20028;-41
2021/12/13 09:19:43;;;;;;;22.50;11.38;;;10.30;99.90;;;;;;5090966;28;20015;-41
2021/12/13 09:22:09;;;;;;;20.38;10.88;;;10.40;99.90;;;;;;5093021;28;20099;-41
2021/12/13 09:24:49;;;;;;;20.70;9.32;;;10.30;99.90;;;;;;5092535;28;20104;-40
2021/12/13 09:27:53;;;;;;;26.05;9.52;;;10.30;99.90;;;;;;5090875;28;20062;-40
2021/12/13 09:30:28;;;;;;;25.40;10.00;;;10.40;99.90;;;;;;5079034;28;20071;-40
2021/12/13 09:33:03;;;;;;;25.52;10.95;;;10.40;99.90;;;;;;5090295;28;20044;-41
2021/12/13 09:35:34;;;;;;;20.73;10.18;;;10.30;99.90;;;;;;5085484;28;20098;-40
2021/12/13 09:38:23;;;;;;;27.02;10.82;;;10.40;99.90;;;;;;5072998;28;20028;-40
2021/12/13 09:41:24;;;;;;;23.55;10.25;;;10.40;99.90;;;;;;5059139;28;20032;-42
2021/12/13 09:43:56;;;;;;;20.90;9.73;;;10.40;99.90;;;;;;5063005;28;20075;-41
2021/12/13 09:47:02;;;;;;;22.67;10.07;;;10.40;99.90;;;;;;5090209;28;20459;-40
2021/12/13 09:49:37;;;;;;;22.08;11.52;;;10.40;99.90;;;;;;5082729;28;20067;-41
2021/12/13 09:52:31;;;;;;;20.33;9.40;;;10.50;99.90;;;;;;5093019;28;20028;-40
2021/12/13 09:55:28;;;;;;;21.73;11.15;;;10.50;99.90;;;;;;5093549;28;20032;-39
2021/12/13 09:58:04;;;;;;;19.73;9.82;;;10.60;99.90;;;;;;5091797;28;20040;-39
2021/12/13 10:00:51;;;;;;;16.88;8.95;;;10.60;99.90;;;;;;5090447;28;20032;-40
2021/12/13 10:03:24;;;;;;;18.73;9.95;;;10.60;99.90;;;;;;5091819;28;20024;-40
2021/12/13 10:05:53;;;;;;;17.48;9.32;;;10.60;99.90;;;;;;5092425;28;20060;-42
2021/12/13 10:08:20;;;;;;;;;;;10.60;99.90;;;;;;5092643;28;20397;-39
2021/12/13 10:10:53;;;;;;;17.75;8.13;;;10.60;99.90;;;;;;5093103;28;19938;-39
2021/12/13 10:13:24;;;;;;;21.13;9.25;;;10.60;99.90;;;;;;5092822;28;20016;-40
2021/12/13 10:15:57;;;;;;;17.95;8.18;;;10.70;99.90;;;;;;5088396;28;20506;-39
2021/12/13 10:18:27;;;;;;;21.27;9.02;;;10.60;99.90;;;;;;5075005;28;20028;-40
2021/12/13 10:21:11;;;;;;;18.27;8.68;;;10.60;99.90;;;;;;5077256;28;20024;-40
2021/12/13 10:23:40;;;;;;;15.95;8.13;;;10.70;99.90;;;;;;5093188;28;20128;-42
2021/12/13 10:26:09;;;;;;;21.00;9.05;;;10.60;99.90;;;;;;5092409;28;20421;-41
2021/12/13 10:28:38;;;;;;;19.60;8.00;;;10.70;99.90;;;;;;5093104;28;20548;-41
2021/12/13 10:31:06;;;;;;;17.60;8.05;;;10.70;99.90;;;;;;5092873;28;20035;-40
2021/12/13 10:33:33;;;;;;;19.35;9.63;;;10.70;99.90;;;;;;5092545;28;20028;-41
2021/12/13 10:36:01;;;;;;;17.73;9.23;;;10.70;99.90;;;;;;5092722;28;20069;-40
2021/12/13 10:38:39;;;;;;;14.90;7.13;;;10.70;99.90;;;;;;5093102;28;20039;-40
2021/12/13 10:41:12;;;;;;;15.70;8.10;;;10.70;99.90;;;;;;5092556;28;20475;-40
2021/12/13 10:43:43;;;;;;;20.60;8.43;;;10.70;99.90;;;;;;5092980;28;20088;-40
2021/12/13 10:46:13;;;;;;;18.40;8.57;;;10.70;99.90;;;;;;5091878;28;20068;-42
2021/12/13 10:48:45;;;;;;;20.77;8.73;;;10.70;99.90;;;;;;5091852;28;20055;-41
2021/12/13 10:51:22;;;;;;;21.30;8.85;;;10.70;99.90;;;;;;5081692;28;20048;-40
2021/12/13 10:53:50;;;;;;;19.17;8.40;;;10.70;99.90;;;;;;5072116;28;20489;-40
2021/12/13 10:56:21;;;;;;;18.45;8.27;;;10.80;99.90;;;;;;5072175;28;20075;-39
2021/12/13 10:58:50;;;;;;;16.58;8.43;;;10.80;99.90;;;;;;5071515;28;20045;-40
2021/12/13 11:01:22;;;;;;;16.50;7.68;;;10.80;99.90;;;;;;5072152;28;20029;-42
2021/12/13 11:03:51;;;;;;;18.10;7.95;;;10.70;99.90;;;;;;5072219;28;20043;-41
2021/12/13 11:06:18;;;;;;;16.42;9.32;;;10.80;99.90;;;;;;5072179;28;20468;-40
2021/12/13 11:08:45;;;;;;;17.52;8.00;;;10.80;99.90;;;;;;5071325;28;20436;-40
2021/12/13 11:11:25;;;;;;;16.00;8.25;;;10.80;99.90;;;;;;5079190;28;20038;-41
2021/12/13 11:13:55;;;;;;;16.48;7.93;;;10.80;99.90;;;;;;5085432;28;20024;-42
2021/12/13 11:16:29;;;;;;;16.27;8.35;;;10.80;99.90;;;;;;5090910;28;20031;-40
2021/12/13 11:18:55;;;;;;;18.30;8.07;;;10.80;99.90;;;;;;5075587;28;20111;-43
2021/12/13 11:21:32;;;;;;;17.50;7.82;;;10.80;99.90;;;;;;5084975;28;20111;-40
2021/12/13 11:23:58;;;;;;;17.95;7.65;;;10.80;99.90;;;;;;5091398;28;20054;-43
2021/12/13 11:26:27;;;;;;;18.90;7.68;;;10.80;99.90;;;;;;5092283;28;20540;-41
2021/12/13 11:28:54;;;;;;;15.52;7.38;;;10.80;99.90;;;;;;5091836;28;20045;-39
2021/12/13 11:31:28;;;;;;;19.40;8.75;;;10.90;99.90;;;;;;5075834;28;20032;-43
2021/12/13 11:34:01;;;;;;;19.92;8.25;;;10.80;99.90;;;;;;5079184;28;20050;-42
2021/12/13 11:36:58;;;;;;;15.48;8.23;;;10.90;99.90;;;;;;5076059;28;20085;-42
2021/12/13 11:39:58;;;;;;;16.08;8.00;;;10.80;99.90;;;;;;5075858;28;20040;-41
2021/12/13 11:43:06;;;;;;;17.42;7.38;;;10.80;99.90;;;;;;5082559;28;20483;-41
2021/12/13 11:45:50;;;;;;;13.55;7.53;;;10.80;99.90;;;;;;5082571;28;20116;-41
2021/12/13 11:48:27;;;;;;;17.25;7.45;;;10.90;99.90;;;;;;5075788;28;20025;-42
2021/12/13 11:51:20;;;;;;;15.43;7.32;;;10.90;99.90;;;;;;5085139;28;20131;-40
2021/12/13 11:54:15;;;;;;;16.75;7.40;;;10.90;99.90;;;;;;5095656;28;20025;-41
2021/12/13 11:57:05;;;;;;;16.52;7.45;;;10.90;99.90;;;;;;5056028;28;20406;-41
2021/12/13 12:00:07;;;;;;;22.75;8.40;;;10.90;99.90;;;;;;5093575;28;20066;-41
2021/12/13 12:03:10;;;;;;;17.30;8.70;;;10.90;99.90;;;;;;5091818;28;20023;-41
2021/12/13 12:06:23;;;;;;;16.52;7.15;;;10.90;99.90;;;;;;5091736;28;20050;-41
2021/12/13 12:09:13;;;;;;;14.65;7.53;;;10.90;99.90;;;;;;5093517;28;20107;-42
2021/12/13 12:12:12;;;;;;;15.80;7.72;;;10.90;99.90;;;;;;5091475;28;20067;-43
2021/12/13 12:14:38;;;;;;;22.10;8.00;;;10.90;99.90;;;;;;5091597;28;20506;-44
2021/12/13 12:17:07;;;;;;;18.20;7.30;;;10.90;99.90;;;;;;5094821;28;20107;-42
2021/12/13 12:19:37;;;;;;;;;;;10.90;99.90;;;;;;5086588;28;20508;-41
2021/12/13 12:22:09;;;;;;;16.17;7.47;;;10.90;99.90;;;;;;5083552;28;19910;-43
2021/12/13 12:24:50;;;;;;;18.40;8.43;;;10.90;99.90;;;;;;5095326;28;20048;-41
2021/12/13 12:27:23;;;;;;;18.38;7.65;;;10.90;99.90;;;;;;5079616;28;20532;-42
2021/12/13 12:30:11;;;;;;;16.98;6.95;;;10.90;99.90;;;;;;5074573;28;20068;-40
2021/12/13 12:32:43;;;;;;;15.68;7.45;;;10.90;99.90;;;;;;5084982;28;20047;-42
2021/12/13 12:35:17;;;;;;;15.85;7.85;;;10.90;99.90;;;;;;5095048;28;20023;-41
2021/12/13 12:38:01;;;;;;;20.10;7.00;;;11.00;99.90;;;;;;5094977;28;20046;-42
2021/12/13 12:40:58;;;;;;;13.93;7.28;;;10.90;99.90;;;;;;5092614;28;20483;-41
2021/12/13 12:43:27;;;;;;;16.00;7.25;;;10.90;99.90;;;;;;5093817;28;20077;-41
2021/12/13 12:46:06;;;;;;;17.73;8.82;;;10.90;99.90;;;;;;5085410;28;20460;-40
2021/12/13 12:48:37;;;;;;;15.95;6.53;;;10.90;99.90;;;;;;5073380;28;20025;-41
2021/12/13 12:51:13;;;;;;;17.98;6.78;;;10.90;99.90;;;;;;5074090;28;20111;-43
2021/12/13 12:53:44;;;;;;;20.17;7.72;;;10.90;99.90;;;;;;5073995;28;20029;-42
2021/12/13 12:56:27;;;;;;;19.00;7.32;;;10.90;99.90;;;;;;5073621;28;20073;-42
2021/12/13 12:59:09;;;;;;;16.63;7.88;;;10.90;99.90;;;;;;5073770;28;20048;-42
2021/12/13 13:01:48;;;;;;;16.42;8.07;;;10.90;99.90;;;;;;5074015;28;20021;-42
2021/12/13 13:04:22;;;;;;;19.83;8.40;;;10.90;99.90;;;;;;5074550;28;20495;-41
2021/12/13 13:07:02;;;;;;;17.52;7.90;;;10.90;99.90;;;;;;5074238;28;20028;-42
2021/12/13 13:09:48;;;;;;;12.65;6.28;;;10.90;99.90;;;;;;5073848;28;20029;-42
2021/12/13 13:12:30;;;;;;;13.98;7.38;;;10.90;99.90;;;;;;5074370;28;20013;-41
2021/12/13 13:15:07;;;;;;;12.98;6.43;;;11.00;99.90;;;;;;5073675;28;20492;-41
2021/12/13 13:17:36;;;;;;;18.70;7.30;;;10.90;99.90;;;;;;5075330;28;20037;-42
2021/12/13 13:20:23;;;;;;;19.10;7.80;;;10.90;99.90;;;;;;5073911;28;20459;-42
2021/12/13 13:22:52;;;;;;;15.68;6.90;;;10.90;99.90;;;;;;5073413;28;20092;-42
2021/12/13 13:25:29;;;;;;;14.85;7.38;;;11.00;99.90;;;;;;5074257;28;20082;-40
2021/12/13 13:27:57;;;;;;;21.13;7.57;;;11.10;99.90;;;;;;5073718;28;20478;-41
2021/12/13 13:30:41;;;;;;;17.83;7.45;;;11.10;99.90;;;;;;5073371;28;20040;-41